sensor_id;sensor_type;location;lat;lon;timestamp;pressure;altitude;pressure_sealevel;temperature;humidity
69306;BME280;56427;51.580;4.656;2024-01-11T00:02:11;103262.88;;;-4.88;77.76
69306;BME280;56427;51.580;4.656;2024-01-11T00:04:37;103266.19;;;-4.89;77.94
69306;BME280;56427;51.580;4.656;2024-01-11T00:07:02;103270.63;;;-4.84;78.19
69306;BME280;56427;51.580;4.656;2024-01-11T00:09:28;103268.34;;;-4.80;77.75
69306;BME280;56427;51.580;4.656;2024-01-11T00:11:53;103262.09;;;-4.86;77.86
69306;BME280;56427;51.580;4.656;2024-01-11T00:14:18;103272.13;;;-4.88;77.47
69306;BME280;56427;51.580;4.656;2024-01-11T00:16:44;103267.31;;;-4.83;77.81
69306;BME280;56427;51.580;4.656;2024-01-11T00:19:09;103265.34;;;-4.89;77.74
69306;BME280;56427;51.580;4.656;2024-01-11T00:21:35;103261.94;;;-4.90;77.52
69306;BME280;56427;51.580;4.656;2024-01-11T00:24:00;103264.47;;;-4.90;77.78
69306;BME280;56427;51.580;4.656;2024-01-11T00:26:26;103265.78;;;-4.96;77.65
69306;BME280;56427;51.580;4.656;2024-01-11T00:28:51;103268.41;;;-4.95;77.52
69306;BME280;56427;51.580;4.656;2024-01-11T00:31:16;103264.28;;;-4.93;77.46
69306;BME280;56427;51.580;4.656;2024-01-11T00:33:42;103262.09;;;-4.86;77.39
69306;BME280;56427;51.580;4.656;2024-01-11T00:36:07;103267.34;;;-4.98;77.50
69306;BME280;56427;51.580;4.656;2024-01-11T00:38:32;103266.56;;;-4.97;77.54
69306;BME280;56427;51.580;4.656;2024-01-11T00:40:58;103267.19;;;-5.01;77.80
69306;BME280;56427;51.580;4.656;2024-01-11T00:43:23;103276.84;;;-4.94;77.71
69306;BME280;56427;51.580;4.656;2024-01-11T00:45:48;103279.38;;;-4.94;77.48
69306;BME280;56427;51.580;4.656;2024-01-11T00:48:14;103274.00;;;-5.00;78.01
69306;BME280;56427;51.580;4.656;2024-01-11T00:50:39;103274.84;;;-5.00;77.95
69306;BME280;56427;51.580;4.656;2024-01-11T00:53:04;103279.91;;;-5.00;77.81
69306;BME280;56427;51.580;4.656;2024-01-11T00:55:30;103283.50;;;-4.96;77.67
69306;BME280;56427;51.580;4.656;2024-01-11T00:57:55;103278.66;;;-4.92;77.83
69306;BME280;56427;51.580;4.656;2024-01-11T01:00:21;103278.94;;;-4.87;77.26
69306;BME280;56427;51.580;4.656;2024-01-11T01:02:46;103274.69;;;-5.03;78.06
69306;BME280;56427;51.580;4.656;2024-01-11T01:05:11;103276.44;;;-5.02;78.11
69306;BME280;56427;51.580;4.656;2024-01-11T01:07:37;103278.22;;;-4.84;77.62
69306;BME280;56427;51.580;4.656;2024-01-11T01:10:02;103270.28;;;-4.91;77.66
69306;BME280;56427;51.580;4.656;2024-01-11T01:12:28;103282.88;;;-4.92;77.77
69306;BME280;56427;51.580;4.656;2024-01-11T01:14:54;103280.97;;;-4.96;78.42
69306;BME280;56427;51.580;4.656;2024-01-11T01:17:19;103279.91;;;-5.00;78.00
69306;BME280;56427;51.580;4.656;2024-01-11T01:19:44;103282.00;;;-4.93;77.70
69306;BME280;56427;51.580;4.656;2024-01-11T01:22:10;103286.78;;;-4.97;77.92
69306;BME280;56427;51.580;4.656;2024-01-11T01:24:35;103289.69;;;-5.06;78.72
69306;BME280;56427;51.580;4.656;2024-01-11T01:27:01;103283.66;;;-4.93;78.68
69306;BME280;56427;51.580;4.656;2024-01-11T01:29:27;103291.97;;;-4.96;78.09
69306;BME280;56427;51.580;4.656;2024-01-11T01:31:52;103299.09;;;-5.03;78.66
69306;BME280;56427;51.580;4.656;2024-01-11T01:34:18;103302.44;;;-5.04;79.08
69306;BME280;56427;51.580;4.656;2024-01-11T01:36:43;103307.50;;;-5.04;79.22
69306;BME280;56427;51.580;4.656;2024-01-11T01:39:09;103298.94;;;-5.06;79.44
69306;BME280;56427;51.580;4.656;2024-01-11T01:41:34;103300.63;;;-5.07;79.40
69306;BME280;56427;51.580;4.656;2024-01-11T01:44:00;103292.94;;;-5.08;79.78
69306;BME280;56427;51.580;4.656;2024-01-11T01:46:25;103292.84;;;-5.10;79.87
69306;BME280;56427;51.580;4.656;2024-01-11T01:48:56;103304.47;;;-5.13;80.05
69306;BME280;56427;51.580;4.656;2024-01-11T01:51:24;103306.81;;;-5.17;80.42
69306;BME280;56427;51.580;4.656;2024-01-11T01:53:52;103312.91;;;-5.13;80.40
69306;BME280;56427;51.580;4.656;2024-01-11T01:56:19;103308.66;;;-5.14;80.16
69306;BME280;56427;51.580;4.656;2024-01-11T01:58:45;103315.97;;;-5.19;80.63
69306;BME280;56427;51.580;4.656;2024-01-11T02:01:11;103317.91;;;-5.14;80.51
69306;BME280;56427;51.580;4.656;2024-01-11T02:03:37;103322.69;;;-5.19;80.44
69306;BME280;56427;51.580;4.656;2024-01-11T02:06:04;103333.16;;;-5.13;80.45
69306;BME280;56427;51.580;4.656;2024-01-11T02:08:31;103327.50;;;-5.09;80.42
69306;BME280;56427;51.580;4.656;2024-01-11T02:10:59;103330.97;;;-5.07;80.44
69306;BME280;56427;51.580;4.656;2024-01-11T02:13:25;103328.19;;;-5.11;79.99
69306;BME280;56427;51.580;4.656;2024-01-11T02:15:50;103327.31;;;-5.12;80.52
69306;BME280;56427;51.580;4.656;2024-01-11T02:18:16;103342.34;;;-5.15;80.63
69306;BME280;56427;51.580;4.656;2024-01-11T02:20:41;103330.56;;;-5.14;80.94
69306;BME280;56427;51.580;4.656;2024-01-11T02:23:09;103326.59;;;-5.09;80.71
69306;BME280;56427;51.580;4.656;2024-01-11T02:25:37;103330.56;;;-5.14;81.19
69306;BME280;56427;51.580;4.656;2024-01-11T02:28:03;103330.97;;;-5.07;81.45
69306;BME280;56427;51.580;4.656;2024-01-11T02:30:28;103321.28;;;-4.99;80.52
69306;BME280;56427;51.580;4.656;2024-01-11T02:32:53;103322.44;;;-5.09;80.57
69306;BME280;56427;51.580;4.656;2024-01-11T02:35:19;103328.09;;;-5.13;80.88
69306;BME280;56427;51.580;4.656;2024-01-11T02:37:45;103331.13;;;-5.04;80.82
69306;BME280;56427;51.580;4.656;2024-01-11T02:40:13;103331.06;;;-5.05;80.47
69306;BME280;56427;51.580;4.656;2024-01-11T02:42:39;103332.00;;;-5.03;80.34
69306;BME280;56427;51.580;4.656;2024-01-11T02:45:04;103338.03;;;-5.01;80.03
69306;BME280;56427;51.580;4.656;2024-01-11T02:47:30;103339.06;;;-4.98;80.09
69306;BME280;56427;51.580;4.656;2024-01-11T02:49:58;103336.38;;;-5.01;79.85
69306;BME280;56427;51.580;4.656;2024-01-11T02:52:23;103335.59;;;-5.00;79.81
69306;BME280;56427;51.580;4.656;2024-01-11T02:54:49;103340.66;;;-5.00;79.62
69306;BME280;56427;51.580;4.656;2024-01-11T02:57:14;103337.06;;;-5.03;79.82
69306;BME280;56427;51.580;4.656;2024-01-11T02:59:40;103329.41;;;-5.05;80.39
69306;BME280;56427;51.580;4.656;2024-01-11T03:02:05;103327.22;;;-4.99;80.20
69306;BME280;56427;51.580;4.656;2024-01-11T03:04:31;103323.00;;;-4.98;79.96
69306;BME280;56427;51.580;4.656;2024-01-11T03:06:56;103334.53;;;-5.03;79.92
69306;BME280;56427;51.580;4.656;2024-01-11T03:09:21;103322.66;;;-5.04;80.23
69306;BME280;56427;51.580;4.656;2024-01-11T03:11:47;103327.56;;;-5.07;80.51
69306;BME280;56427;51.580;4.656;2024-01-11T03:14:12;103329.94;;;-5.25;81.88
69306;BME280;56427;51.580;4.656;2024-01-11T03:16:37;103325.22;;;-5.19;82.11
69306;BME280;56427;51.580;4.656;2024-01-11T03:19:05;103319.22;;;-5.21;82.74
69306;BME280;56427;51.580;4.656;2024-01-11T03:21:30;103325.16;;;-5.21;82.42
69306;BME280;56427;51.580;4.656;2024-01-11T03:23:55;103326.88;;;-5.20;82.50
69306;BME280;56427;51.580;4.656;2024-01-11T03:26:21;103327.50;;;-5.24;82.73
69306;BME280;56427;51.580;4.656;2024-01-11T03:28:46;103336.81;;;-5.23;82.96
69306;BME280;56427;51.580;4.656;2024-01-11T03:31:12;103332.28;;;-5.28;82.97
69306;BME280;56427;51.580;4.656;2024-01-11T03:33:37;103337.34;;;-5.28;82.78
69306;BME280;56427;51.580;4.656;2024-01-11T03:36:12;103329.75;;;-5.28;82.81
69306;BME280;56427;51.580;4.656;2024-01-11T03:38:37;103330.44;;;-5.31;83.02
69306;BME280;56427;51.580;4.656;2024-01-11T03:41:12;103335.50;;;-5.31;82.90
69306;BME280;56427;51.580;4.656;2024-01-11T03:43:37;103328.63;;;-5.33;82.68
69306;BME280;56427;51.580;4.656;2024-01-11T03:46:03;103331.16;;;-5.33;82.78
69306;BME280;56427;51.580;4.656;2024-01-11T03:48:30;103325.91;;;-5.36;82.90
69306;BME280;56427;51.580;4.656;2024-01-11T03:50:55;103330.09;;;-5.37;82.75
69306;BME280;56427;51.580;4.656;2024-01-11T03:53:21;103324.44;;;-5.33;82.66
69306;BME280;56427;51.580;4.656;2024-01-11T03:55:46;103328.53;;;-5.35;82.84
69306;BME280;56427;51.580;4.656;2024-01-11T03:58:11;103326.19;;;-5.47;83.08
69306;BME280;56427;51.580;4.656;2024-01-11T04:00:37;103326.72;;;-5.52;83.23
69306;BME280;56427;51.580;4.656;2024-01-11T04:03:02;103315.72;;;-5.53;83.14
69306;BME280;56427;51.580;4.656;2024-01-11T04:05:28;103321.97;;;-5.61;83.44
69306;BME280;56427;51.580;4.656;2024-01-11T04:07:53;103318.25;;;-5.53;83.43
69306;BME280;56427;51.580;4.656;2024-01-11T04:10:18;103324.63;;;-5.59;83.67
69306;BME280;56427;51.580;4.656;2024-01-11T04:12:44;103327.47;;;-5.53;83.56
69306;BME280;56427;51.580;4.656;2024-01-11T04:15:12;103332.09;;;-5.61;83.58
69306;BME280;56427;51.580;4.656;2024-01-11T04:17:38;103333.16;;;-5.57;83.88
69306;BME280;56427;51.580;4.656;2024-01-11T04:20:05;103333.75;;;-5.61;83.51
69306;BME280;56427;51.580;4.656;2024-01-11T04:22:31;103331.28;;;-5.60;83.25
69306;BME280;56427;51.580;4.656;2024-01-11T04:24:56;103326.00;;;-5.64;83.46
69306;BME280;56427;51.580;4.656;2024-01-11T04:27:21;103332.09;;;-5.61;83.55
69306;BME280;56427;51.580;4.656;2024-01-11T04:29:47;103344.22;;;-5.55;83.21
69306;BME280;56427;51.580;4.656;2024-01-11T04:32:12;103353.28;;;-5.59;83.00
69306;BME280;56427;51.580;4.656;2024-01-11T04:34:37;103353.28;;;-5.59;82.97
69306;BME280;56427;51.580;4.656;2024-01-11T04:37:03;103369.41;;;-5.57;83.32
69306;BME280;56427;51.580;4.656;2024-01-11T04:39:28;103362.78;;;-5.55;83.07
69306;BME280;56427;51.580;4.656;2024-01-11T04:41:53;103366.00;;;-5.57;83.04
69306;BME280;56427;51.580;4.656;2024-01-11T04:44:19;103371.16;;;-5.56;83.42
69306;BME280;56427;51.580;4.656;2024-01-11T04:46:44;103360.97;;;-5.57;83.31
69306;BME280;56427;51.580;4.656;2024-01-11T04:49:09;103359.38;;;-5.70;83.79
69306;BME280;56427;51.580;4.656;2024-01-11T04:51:35;103373.66;;;-5.71;84.22
69306;BME280;56427;51.580;4.656;2024-01-11T04:54:00;103376.63;;;-5.63;84.26
69306;BME280;56427;51.580;4.656;2024-01-11T04:56:26;103378.38;;;-5.62;84.10
69306;BME280;56427;51.580;4.656;2024-01-11T04:58:51;103385.59;;;-5.68;84.36
69306;BME280;56427;51.580;4.656;2024-01-11T05:01:17;103387.16;;;-5.70;84.43
69306;BME280;56427;51.580;4.656;2024-01-11T05:03:45;103385.22;;;-5.74;84.67
69306;BME280;56427;51.580;4.656;2024-01-11T05:06:18;103373.28;;;-5.77;84.65
69306;BME280;56427;51.580;4.656;2024-01-11T05:08:46;103384.44;;;-5.73;84.36
69306;BME280;56427;51.580;4.656;2024-01-11T05:11:37;103382.94;;;-5.84;85.55
69306;BME280;56427;51.580;4.656;2024-01-11T05:14:03;103381.47;;;-5.81;85.75
69306;BME280;56427;51.580;4.656;2024-01-11T05:16:28;103381.88;;;-5.88;85.73
69306;BME280;56427;51.580;4.656;2024-01-11T05:18:56;103390.31;;;-5.87;86.02
69306;BME280;56427;51.580;4.656;2024-01-11T05:21:22;103383.69;;;-5.85;85.71
69306;BME280;56427;51.580;4.656;2024-01-11T05:23:48;103378.84;;;-5.82;85.38
69306;BME280;56427;51.580;4.656;2024-01-11T05:26:15;103389.13;;;-5.94;85.96
69306;BME280;56427;51.580;4.656;2024-01-11T05:28:41;103403.66;;;-5.90;86.60
69306;BME280;56427;51.580;4.656;2024-01-11T05:31:09;103406.28;;;-5.88;86.81
69306;BME280;56427;51.580;4.656;2024-01-11T05:33:34;103414.47;;;-5.92;86.83
69306;BME280;56427;51.580;4.656;2024-01-11T05:36:00;103408.38;;;-5.96;86.88
69306;BME280;56427;51.580;4.656;2024-01-11T05:38:25;103405.72;;;-5.98;87.28
69306;BME280;56427;51.580;4.656;2024-01-11T05:40:50;103410.63;;;-6.01;87.10
69306;BME280;56427;51.580;4.656;2024-01-11T05:43:16;103408.66;;;-6.05;87.09
69306;BME280;56427;51.580;4.656;2024-01-11T05:45:41;103411.03;;;-6.08;86.99
69306;BME280;56427;51.580;4.656;2024-01-11T05:48:06;103410.63;;;-6.01;87.22
69306;BME280;56427;51.580;4.656;2024-01-11T05:50:32;103418.47;;;-5.96;86.83
69306;BME280;56427;51.580;4.656;2024-01-11T05:52:57;103420.88;;;-5.98;86.37
69306;BME280;56427;51.580;4.656;2024-01-11T05:55:23;103421.50;;;-6.02;86.26
69306;BME280;56427;51.580;4.656;2024-01-11T05:57:48;103425.69;;;-6.02;86.42
69306;BME280;56427;51.580;4.656;2024-01-11T06:00:14;103435.09;;;-6.00;86.41
69306;BME280;56427;51.580;4.656;2024-01-11T06:02:40;103438.31;;;-6.02;86.44
69306;BME280;56427;51.580;4.656;2024-01-11T06:05:08;103428.28;;;-6.01;86.39
69306;BME280;56427;51.580;4.656;2024-01-11T06:07:33;103416.94;;;-6.07;86.23
69306;BME280;56427;51.580;4.656;2024-01-11T06:09:59;103415.28;;;-6.07;86.52
69306;BME280;56427;51.580;4.656;2024-01-11T06:12:26;103403.06;;;-6.14;86.76
69306;BME280;56427;51.580;4.656;2024-01-11T06:14:51;103410.03;;;-6.10;86.40
69306;BME280;56427;51.580;4.656;2024-01-11T06:17:17;103416.56;;;-6.13;87.04
69306;BME280;56427;51.580;4.656;2024-01-11T06:19:42;103427.06;;;-6.20;87.38
69306;BME280;56427;51.580;4.656;2024-01-11T06:22:07;103436.38;;;-6.19;87.80
69306;BME280;56427;51.580;4.656;2024-01-11T06:24:33;103444.66;;;-6.22;87.54
69306;BME280;56427;51.580;4.656;2024-01-11T06:26:58;103447.94;;;-6.23;87.91
69306;BME280;56427;51.580;4.656;2024-01-11T06:29:23;103437.84;;;-6.23;87.71
69306;BME280;56427;51.580;4.656;2024-01-11T06:31:49;103444.94;;;-6.31;87.30
69306;BME280;56427;51.580;4.656;2024-01-11T06:34:14;103442.00;;;-6.23;88.10
69306;BME280;56427;51.580;4.656;2024-01-11T06:36:40;103439.31;;;-6.27;87.96
69306;BME280;56427;51.580;4.656;2024-01-11T06:39:05;103444.28;;;-6.28;88.04
69306;BME280;56427;51.580;4.656;2024-01-11T06:41:31;103441.63;;;-6.30;88.69
69306;BME280;56427;51.580;4.656;2024-01-11T06:43:56;103442.50;;;-6.29;88.94
69306;BME280;56427;51.580;4.656;2024-01-11T06:46:22;103446.03;;;-6.27;88.53
69306;BME280;56427;51.580;4.656;2024-01-11T06:48:48;103450.69;;;-6.33;88.80
69306;BME280;56427;51.580;4.656;2024-01-11T06:51:15;103441.25;;;-6.36;89.27
69306;BME280;56427;51.580;4.656;2024-01-11T06:53:41;103434.66;;;-6.20;88.60
69306;BME280;56427;51.580;4.656;2024-01-11T06:56:14;103422.91;;;-6.33;88.56
69306;BME280;56427;51.580;4.656;2024-01-11T06:58:40;103415.59;;;-6.29;88.18
69306;BME280;56427;51.580;4.656;2024-01-11T07:01:05;103431.84;;;-6.52;88.20
69306;BME280;56427;51.580;4.656;2024-01-11T07:03:31;103427.75;;;-6.49;90.00
69306;BME280;56427;51.580;4.656;2024-01-11T07:05:56;103433.50;;;-6.39;90.33
69306;BME280;56427;51.580;4.656;2024-01-11T07:08:22;103446.59;;;-6.44;90.06
69306;BME280;56427;51.580;4.656;2024-01-11T07:10:47;103437.38;;;-6.44;90.15
69306;BME280;56427;51.580;4.656;2024-01-11T07:13:12;103447.56;;;-6.42;89.83
69306;BME280;56427;51.580;4.656;2024-01-11T07:15:41;103451.25;;;-6.50;90.56
69306;BME280;56427;51.580;4.656;2024-01-11T07:18:07;103462.91;;;-6.53;90.34
69306;BME280;56427;51.580;4.656;2024-01-11T07:20:32;103460.88;;;-6.45;90.90
69306;BME280;56427;51.580;4.656;2024-01-11T07:22:59;103466.41;;;-6.37;90.61
69306;BME280;56427;51.580;4.656;2024-01-11T07:25:24;103472.31;;;-6.37;90.38
69306;BME280;56427;51.580;4.656;2024-01-11T07:27:49;103465.53;;;-6.38;90.64
69306;BME280;56427;51.580;4.656;2024-01-11T07:30:15;103476.03;;;-6.45;90.22
69306;BME280;56427;51.580;4.656;2024-01-11T07:32:40;103476.59;;;-6.36;91.05
69306;BME280;56427;51.580;4.656;2024-01-11T07:35:06;103479.13;;;-6.36;91.10
69306;BME280;56427;51.580;4.656;2024-01-11T07:37:32;103479.25;;;-6.34;90.89
69306;BME280;56427;51.580;4.656;2024-01-11T07:39:57;103476.41;;;-6.39;90.85
69306;BME280;56427;51.580;4.656;2024-01-11T07:42:22;103476.31;;;-6.40;90.62
69306;BME280;56427;51.580;4.656;2024-01-11T07:44:48;103489.22;;;-6.36;91.19
69306;BME280;56427;51.580;4.656;2024-01-11T07:47:13;103486.69;;;-6.36;91.17
69306;BME280;56427;51.580;4.656;2024-01-11T07:49:39;103480.97;;;-6.33;90.75
69306;BME280;56427;51.580;4.656;2024-01-11T07:52:04;103467.19;;;-6.38;90.64
69306;BME280;56427;51.580;4.656;2024-01-11T07:54:30;103480.91;;;-6.35;91.57
69306;BME280;56427;51.580;4.656;2024-01-11T07:56:56;103482.63;;;-6.34;91.89
69306;BME280;56427;51.580;4.656;2024-01-11T07:59:22;103475.53;;;-6.26;91.72
69306;BME280;56427;51.580;4.656;2024-01-11T08:01:47;103481.75;;;-6.21;91.85
69306;BME280;56427;51.580;4.656;2024-01-11T08:04:14;103483.97;;;-6.12;91.48
69306;BME280;56427;51.580;4.656;2024-01-11T08:06:39;103488.53;;;-6.07;91.15
69306;BME280;56427;51.580;4.656;2024-01-11T08:09:04;103486.56;;;-5.98;91.43
69306;BME280;56427;51.580;4.656;2024-01-11T08:11:30;103498.19;;;-5.86;91.22
69306;BME280;56427;51.580;4.656;2024-01-11T08:13:56;103499.03;;;-5.73;90.86
69306;BME280;56427;51.580;4.656;2024-01-11T08:16:22;103492.75;;;-5.38;90.17
69306;BME280;56427;51.580;4.656;2024-01-11T08:18:47;103479.19;;;-5.10;88.39
69306;BME280;56427;51.580;4.656;2024-01-11T08:21:14;103480.63;;;-4.42;86.51
69306;BME280;56427;51.580;4.656;2024-01-11T08:23:40;103473.16;;;-3.62;83.58
69306;BME280;56427;51.580;4.656;2024-01-11T08:26:12;103464.19;;;-3.06;81.08
69306;BME280;56427;51.580;4.656;2024-01-11T08:28:37;103476.06;;;-4.32;81.90
69306;BME280;56427;51.580;4.656;2024-01-11T08:31:03;103482.16;;;-4.29;84.03
69306;BME280;56427;51.580;4.656;2024-01-11T08:33:30;103471.09;;;-3.69;82.75
69306;BME280;56427;51.580;4.656;2024-01-11T08:35:56;103466.72;;;-3.22;80.70
69306;BME280;56427;51.580;4.656;2024-01-11T08:38:21;103460.97;;;-2.86;79.20
69306;BME280;56427;51.580;4.656;2024-01-11T08:40:46;103468.97;;;-3.45;79.10
69306;BME280;56427;51.580;4.656;2024-01-11T08:43:12;103479.50;;;-4.01;81.20
69306;BME280;56427;51.580;4.656;2024-01-11T08:45:39;103483.50;;;-4.36;83.75
69306;BME280;56427;51.580;4.656;2024-01-11T08:48:04;103481.44;;;-4.57;85.27
69306;BME280;56427;51.580;4.656;2024-01-11T08:50:30;103477.75;;;-4.48;86.00
69306;BME280;56427;51.580;4.656;2024-01-11T08:52:55;103482.47;;;-4.54;86.75
69306;BME280;56427;51.580;4.656;2024-01-11T08:55:20;103490.41;;;-4.33;86.39
69306;BME280;56427;51.580;4.656;2024-01-11T08:57:46;103494.41;;;-4.37;86.45
69306;BME280;56427;51.580;4.656;2024-01-11T09:00:11;103499.34;;;-4.09;85.98
69306;BME280;56427;51.580;4.656;2024-01-11T09:02:37;103490.94;;;-3.93;85.34
69306;BME280;56427;51.580;4.656;2024-01-11T09:05:02;103487.72;;;-4.05;85.93
69306;BME280;56427;51.580;4.656;2024-01-11T09:07:32;103494.94;;;-3.65;84.40
69306;BME280;56427;51.580;4.656;2024-01-11T09:09:57;103487.28;;;-3.18;83.83
69306;BME280;56427;51.580;4.656;2024-01-11T09:12:23;103500.19;;;-3.46;82.60
69306;BME280;56427;51.580;4.656;2024-01-11T09:14:48;103510.97;;;-3.50;83.98
69306;BME280;56427;51.580;4.656;2024-01-11T09:17:13;103517.63;;;-3.36;83.49
69306;BME280;56427;51.580;4.656;2024-01-11T09:19:39;103516.44;;;-3.10;82.73
69306;BME280;56427;51.580;4.656;2024-01-11T09:22:05;103512.94;;;-2.95;82.43
69306;BME280;56427;51.580;4.656;2024-01-11T09:24:30;103510.50;;;-2.60;81.26
69306;BME280;56427;51.580;4.656;2024-01-11T09:26:56;103522.81;;;-2.15;78.97
69306;BME280;56427;51.580;4.656;2024-01-11T09:29:21;103522.78;;;-3.34;81.36
69306;BME280;56427;51.580;4.656;2024-01-11T09:31:46;103519.53;;;-3.48;83.24
69306;BME280;56427;51.580;4.656;2024-01-11T09:34:12;103519.97;;;-2.39;82.19
69306;BME280;56427;51.580;4.656;2024-01-11T09:36:37;103513.75;;;-1.55;78.20
69306;BME280;56427;51.580;4.656;2024-01-11T09:39:04;103521.28;;;-1.00;75.16
69306;BME280;56427;51.580;4.656;2024-01-11T09:41:31;103519.75;;;-0.34;72.53
69306;BME280;56427;51.580;4.656;2024-01-11T09:44:00;103524.84;;;-0.95;73.15
69306;BME280;56427;51.580;4.656;2024-01-11T09:46:26;103539.72;;;-0.45;71.74
69306;BME280;56427;51.580;4.656;2024-01-11T09:48:53;103533.06;;;-0.41;72.75
69306;BME280;56427;51.580;4.656;2024-01-11T09:51:20;103542.44;;;-1.01;72.64
69306;BME280;56427;51.580;4.656;2024-01-11T09:53:47;103547.66;;;-1.74;76.68
69306;BME280;56427;51.580;4.656;2024-01-11T09:56:16;103553.34;;;-1.43;75.52
69306;BME280;56427;51.580;4.656;2024-01-11T09:58:46;103564.03;;;-1.32;76.64
69306;BME280;56427;51.580;4.656;2024-01-11T10:01:13;103562.25;;;-1.14;75.29
69306;BME280;56427;51.580;4.656;2024-01-11T10:03:39;103573.19;;;-0.77;74.90
69306;BME280;56427;51.580;4.656;2024-01-11T10:06:06;103567.34;;;-1.33;74.75
69306;BME280;56427;51.580;4.656;2024-01-11T10:08:32;103571.72;;;-1.30;74.88
69306;BME280;56427;51.580;4.656;2024-01-11T10:10:57;103569.78;;;-0.78;74.12
69306;BME280;56427;51.580;4.656;2024-01-11T10:13:30;103576.72;;;-0.55;72.36
69306;BME280;56427;51.580;4.656;2024-01-11T10:18:36;103566.09;;;-0.85;73.08
69306;BME280;56427;51.580;4.656;2024-01-11T10:21:02;103568.03;;;-0.98;71.84
69306;BME280;56427;51.580;4.656;2024-01-11T10:23:28;103572.28;;;-1.55;73.24
69306;BME280;56427;51.580;4.656;2024-01-11T10:25:56;103570.16;;;-1.64;74.74
69306;BME280;56427;51.580;4.656;2024-01-11T10:28:22;103577.00;;;-2.17;75.35
69306;BME280;56427;51.580;4.656;2024-01-11T10:30:47;103581.38;;;-1.78;75.93
69306;BME280;56427;51.580;4.656;2024-01-11T10:33:13;103579.56;;;-1.81;74.92
69306;BME280;56427;51.580;4.656;2024-01-11T10:35:38;103582.81;;;-1.66;74.29
69306;BME280;56427;51.580;4.656;2024-01-11T10:38:09;103581.38;;;-1.60;73.05
69306;BME280;56427;51.580;4.656;2024-01-11T10:40:35;103594.06;;;-1.43;72.19
69306;BME280;56427;51.580;4.656;2024-01-11T10:43:02;103575.09;;;-1.49;71.43
69306;BME280;56427;51.580;4.656;2024-01-11T10:45:31;103583.50;;;-1.32;71.56
69306;BME280;56427;51.580;4.656;2024-01-11T10:48:07;103579.88;;;-1.38;70.45
69306;BME280;56427;51.580;4.656;2024-01-11T10:50:36;103584.81;;;-1.41;69.44
69306;BME280;56427;51.580;4.656;2024-01-11T10:53:25;103570.94;;;-1.47;69.89
69306;BME280;56427;51.580;4.656;2024-01-11T10:55:53;103574.00;;;-1.17;69.16
69306;BME280;56427;51.580;4.656;2024-01-11T10:58:21;103569.41;;;-1.06;68.38
69306;BME280;56427;51.580;4.656;2024-01-11T11:00:49;103567.44;;;-1.12;69.21
69306;BME280;56427;51.580;4.656;2024-01-11T11:03:15;103567.50;;;-1.11;68.47
69306;BME280;56427;51.580;4.656;2024-01-11T11:05:42;103563.34;;;-0.89;67.81
69306;BME280;56427;51.580;4.656;2024-01-11T11:08:09;103568.97;;;-0.77;68.54
69306;BME280;56427;51.580;4.656;2024-01-11T11:10:36;103570.97;;;-0.70;67.01
69306;BME280;56427;51.580;4.656;2024-01-11T11:13:02;103565.69;;;-0.74;66.31
69306;BME280;56427;51.580;4.656;2024-01-11T11:15:28;103580.19;;;-0.93;66.66
69306;BME280;56427;51.580;4.656;2024-01-11T11:17:54;103581.13;;;-1.10;66.08
69306;BME280;56427;51.580;4.656;2024-01-11T11:20:20;103579.50;;;-0.89;67.49
69306;BME280;56427;51.580;4.656;2024-01-11T11:23:06;103574.13;;;-0.95;67.51
69306;BME280;56427;51.580;4.656;2024-01-11T11:25:33;103584.25;;;-0.77;67.31
69306;BME280;56427;51.580;4.656;2024-01-11T11:27:59;103595.28;;;-0.57;67.59
69306;BME280;56427;51.580;4.656;2024-01-11T11:30:29;103599.53;;;-0.58;67.92
69306;BME280;56427;51.580;4.656;2024-01-11T11:32:55;103607.50;;;-0.69;68.68
69306;BME280;56427;51.580;4.656;2024-01-11T11:35:23;103611.75;;;-0.89;68.89
69306;BME280;56427;51.580;4.656;2024-01-11T11:37:48;103618.78;;;-0.64;69.24
69306;BME280;56427;51.580;4.656;2024-01-11T11:40:15;103620.00;;;-0.75;69.99
69306;BME280;56427;51.580;4.656;2024-01-11T11:42:41;103620.88;;;-0.56;70.61
69306;BME280;56427;51.580;4.656;2024-01-11T11:45:11;103612.81;;;-0.65;72.40
69306;BME280;56427;51.580;4.656;2024-01-11T11:47:37;103623.94;;;-0.43;72.77
69306;BME280;56427;51.580;4.656;2024-01-11T11:52:33;103608.69;;;-0.42;75.62
69306;BME280;56427;51.580;4.656;2024-01-11T11:55:08;103607.44;;;-0.51;77.00
69306;BME280;56427;51.580;4.656;2024-01-11T11:57:35;103596.34;;;-0.52;76.63
69306;BME280;56427;51.580;4.656;2024-01-11T12:00:00;103593.97;;;-0.49;76.77
69306;BME280;56427;51.580;4.656;2024-01-11T12:02:33;103584.31;;;-0.56;76.66
69306;BME280;56427;51.580;4.656;2024-01-11T12:05:01;103592.66;;;-0.39;76.77
69306;BME280;56427;51.580;4.656;2024-01-11T12:07:27;103594.94;;;-0.45;77.26
69306;BME280;56427;51.580;4.656;2024-01-11T12:09:52;103602.06;;;-0.58;77.08
69306;BME280;56427;51.580;4.656;2024-01-11T12:12:18;103588.31;;;-0.21;76.49
69306;BME280;56427;51.580;4.656;2024-01-11T12:14:46;103602.84;;;-0.39;76.95
69306;BME280;56427;51.580;4.656;2024-01-11T12:17:11;103609.25;;;-0.49;77.09
69306;BME280;56427;51.580;4.656;2024-01-11T12:19:37;103607.03;;;-0.41;78.16
69306;BME280;56427;51.580;4.656;2024-01-11T12:22:02;103608.16;;;-0.35;80.11
69306;BME280;56427;51.580;4.656;2024-01-11T12:24:28;103611.41;;;-0.18;81.50
69306;BME280;56427;51.580;4.656;2024-01-11T12:26:55;103602.63;;;-0.24;81.49
69306;BME280;56427;51.580;4.656;2024-01-11T12:29:21;103600.00;;;-0.26;82.94
69306;BME280;56427;51.580;4.656;2024-01-11T12:31:46;103588.34;;;0.22;81.42
69306;BME280;56427;51.580;4.656;2024-01-11T12:34:13;103596.31;;;-0.33;85.90
69306;BME280;56427;51.580;4.656;2024-01-11T12:36:39;103590.72;;;-0.45;89.35
69306;BME280;56427;51.580;4.656;2024-01-11T12:39:05;103594.72;;;-0.71;92.18
69306;BME280;56427;51.580;4.656;2024-01-11T12:41:32;103580.34;;;-0.88;94.26
69306;BME280;56427;51.580;4.656;2024-01-11T12:43:58;103578.97;;;-1.01;96.21
69306;BME280;56427;51.580;4.656;2024-01-11T12:46:23;103584.84;;;-1.02;96.88
69306;BME280;56427;51.580;4.656;2024-01-11T12:48:49;103592.06;;;-1.13;97.53
69306;BME280;56427;51.580;4.656;2024-01-11T12:51:16;103589.09;;;-1.02;97.60